This is the latest recevied weather packets stored in our database for station/object KF6GPE. If no packets are shown the sender has not sent any weather packets the latest 10 day(s).
| Time | Temp. | Humidity | Pressure | Rain* | Wind** | Luminosity | Snow |
|---|---|---|---|---|---|---|---|
| 1788145212 | 61° F | 75% | 740 mmHg | 0 in | - | 0 W/m² | - |
| 1788143405 | 64° F | 70% | 739.9 mmHg | 0 in | - | 3 W/m² | - |
| 1788141612 | 67° F | 66% | 739.8 mmHg | 0 in | - | 8 W/m² | - |
| 1788139808 | 69° F | 61% | 739.7 mmHg | 0 in | - | 12 W/m² | - |
| 1788138008 | 71° F | 58% | 739.7 mmHg | 0 in | - | 15 W/m² | - |
| 1788136207 | 75° F | 54% | 739.7 mmHg | 0 in | - | 18 W/m² | - |
| 1788134410 | 76° F | 51% | 739.7 mmHg | 0 in | - | 23 W/m² | - |
| 1788132608 | 78° F | 49% | 739.6 mmHg | 0 in | - | 44 W/m² | - |
| 1788130810 | 80° F | 46% | 739.8 mmHg | 0 in | - | 584 W/m² | - |
| 1788129006 | 80° F | 46% | 739.9 mmHg | 0 in | - | 682 W/m² | - |
| 1788127205 | 80° F | 45% | 740.1 mmHg | 0 in | - | 765 W/m² | - |
| 1788125407 | 82° F | 44% | 740.3 mmHg | 0 in | - | 831 W/m² | - |
| 1788123606 | 82° F | 41% | 740.5 mmHg | 0 in | - | 878 W/m² | - |
| 1788121808 | 79° F | 45% | 740.7 mmHg | 0 in | - | 912 W/m² | - |
| 1788120010 | 77° F | 47% | 740.8 mmHg | 0 in | - | 928 W/m² | - |
| 1788118206 | 75° F | 49% | 740.9 mmHg | 0 in | - | 921 W/m² | - |
| 1788116404 | 73° F | 53% | 741.1 mmHg | 0 in | - | 895 W/m² | - |
| 1788114608 | 71° F | 56% | 741.3 mmHg | 0 in | - | 848 W/m² | - |
| 1788112806 | 69° F | 60% | 741.4 mmHg | 0 in | - | 783 W/m² | - |
| 1788111005 | 64° F | 66% | 741.6 mmHg | 0 in | - | 699 W/m² | - |
| 1788109210 | 61° F | 73% | 741.5 mmHg | 0 in | - | 32 W/m² | - |
| 1788107414 | 59° F | 75% | 741.5 mmHg | 0 in | - | 24 W/m² | - |
| 1788105608 | 57° F | 78% | 741.7 mmHg | 0 in | - | 21 W/m² | - |
| 1788103810 | 56° F | 80% | 741.8 mmHg | 0 in | - | 20 W/m² | - |
| 1788102008 | 55° F | 83% | 741.7 mmHg | 0 in | - | 27 W/m² | - |
* Rain latest hour (hover to see other rain measurements)
** Current wind speed in m/s (hover to see current wind gust speed)